sensor_id;sensor_type;location;lat;lon;timestamp;P1;durP1;ratioP1;P2;durP2;ratioP2
60060;SDS011;45933;51.336;12.612;2023-09-30T00:00:35;4.47;;;1.40;;
60060;SDS011;45933;51.336;12.612;2023-09-30T00:03:01;4.70;;;1.13;;
60060;SDS011;45933;51.336;12.612;2023-09-30T00:05:27;3.60;;;1.30;;
60060;SDS011;45933;51.336;12.612;2023-09-30T00:07:52;7.68;;;1.60;;
60060;SDS011;45933;51.336;12.612;2023-09-30T00:10:17;2.08;;;1.20;;
60060;SDS011;45933;51.336;12.612;2023-09-30T00:12:43;3.90;;;1.40;;
60060;SDS011;45933;51.336;12.612;2023-09-30T00:15:08;4.13;;;1.38;;
60060;SDS011;45933;51.336;12.612;2023-09-30T00:17:34;8.30;;;1.42;;
60060;SDS011;45933;51.336;12.612;2023-09-30T00:19:59;5.18;;;1.45;;
60060;SDS011;45933;51.336;12.612;2023-09-30T00:22:25;2.33;;;1.20;;
60060;SDS011;45933;51.336;12.612;2023-09-30T00:24:50;6.90;;;1.90;;
60060;SDS011;45933;51.336;12.612;2023-09-30T00:27:15;6.72;;;1.20;;
60060;SDS011;45933;51.336;12.612;2023-09-30T00:29:41;2.47;;;0.95;;
60060;SDS011;45933;51.336;12.612;2023-09-30T00:32:06;4.53;;;1.58;;
60060;SDS011;45933;51.336;12.612;2023-09-30T00:34:32;6.68;;;1.80;;
60060;SDS011;45933;51.336;12.612;2023-09-30T00:36:59;10.10;;;2.00;;
60060;SDS011;45933;51.336;12.612;2023-09-30T00:39:25;3.20;;;1.30;;
60060;SDS011;45933;51.336;12.612;2023-09-30T00:41:54;4.72;;;1.73;;
60060;SDS011;45933;51.336;12.612;2023-09-30T00:44:19;6.07;;;1.95;;
60060;SDS011;45933;51.336;12.612;2023-09-30T00:46:45;6.07;;;1.70;;
60060;SDS011;45933;51.336;12.612;2023-09-30T00:49:10;4.07;;;1.63;;
60060;SDS011;45933;51.336;12.612;2023-09-30T00:51:38;8.20;;;1.83;;
60060;SDS011;45933;51.336;12.612;2023-09-30T00:54:04;8.10;;;2.13;;
60060;SDS011;45933;51.336;12.612;2023-09-30T00:56:31;4.85;;;1.92;;
60060;SDS011;45933;51.336;12.612;2023-09-30T00:58:57;3.60;;;1.83;;
60060;SDS011;45933;51.336;12.612;2023-09-30T01:01:23;5.60;;;1.88;;
60060;SDS011;45933;51.336;12.612;2023-09-30T01:03:49;3.35;;;1.48;;
60060;SDS011;45933;51.336;12.612;2023-09-30T01:06:14;5.57;;;1.48;;
60060;SDS011;45933;51.336;12.612;2023-09-30T01:08:40;4.43;;;1.85;;
60060;SDS011;45933;51.336;12.612;2023-09-30T01:11:06;5.32;;;1.92;;
60060;SDS011;45933;51.336;12.612;2023-09-30T01:13:36;8.25;;;2.00;;
60060;SDS011;45933;51.336;12.612;2023-09-30T01:16:03;6.35;;;1.83;;
60060;SDS011;45933;51.336;12.612;2023-09-30T01:18:29;4.93;;;1.77;;
60060;SDS011;45933;51.336;12.612;2023-09-30T01:20:55;5.00;;;1.80;;
60060;SDS011;45933;51.336;12.612;2023-09-30T01:23:21;6.53;;;2.13;;
60060;SDS011;45933;51.336;12.612;2023-09-30T01:25:47;6.30;;;1.90;;
60060;SDS011;45933;51.336;12.612;2023-09-30T01:28:12;5.72;;;2.25;;
60060;SDS011;45933;51.336;12.612;2023-09-30T01:30:39;5.78;;;2.00;;
60060;SDS011;45933;51.336;12.612;2023-09-30T01:33:05;5.63;;;2.00;;
60060;SDS011;45933;51.336;12.612;2023-09-30T01:35:32;4.57;;;1.90;;
60060;SDS011;45933;51.336;12.612;2023-09-30T01:37:58;7.95;;;2.13;;
60060;SDS011;45933;51.336;12.612;2023-09-30T01:40:23;7.85;;;1.90;;
60060;SDS011;45933;51.336;12.612;2023-09-30T01:42:48;6.57;;;2.17;;
60060;SDS011;45933;51.336;12.612;2023-09-30T01:45:14;6.70;;;2.35;;
60060;SDS011;45933;51.336;12.612;2023-09-30T01:47:39;4.30;;;1.90;;
60060;SDS011;45933;51.336;12.612;2023-09-30T01:50:05;4.72;;;1.77;;
60060;SDS011;45933;51.336;12.612;2023-09-30T01:52:31;5.03;;;1.73;;
60060;SDS011;45933;51.336;12.612;2023-09-30T01:54:56;5.88;;;2.25;;
60060;SDS011;45933;51.336;12.612;2023-09-30T01:57:21;5.63;;;2.00;;
60060;SDS011;45933;51.336;12.612;2023-09-30T01:59:47;5.15;;;1.80;;
60060;SDS011;45933;51.336;12.612;2023-09-30T02:02:12;6.20;;;2.10;;
60060;SDS011;45933;51.336;12.612;2023-09-30T02:04:38;5.00;;;1.77;;
60060;SDS011;45933;51.336;12.612;2023-09-30T02:07:03;7.07;;;1.90;;
60060;SDS011;45933;51.336;12.612;2023-09-30T02:09:28;3.55;;;1.85;;
60060;SDS011;45933;51.336;12.612;2023-09-30T02:11:54;7.85;;;1.67;;
60060;SDS011;45933;51.336;12.612;2023-09-30T02:14:20;7.25;;;1.65;;
60060;SDS011;45933;51.336;12.612;2023-09-30T02:16:45;9.45;;;2.45;;
60060;SDS011;45933;51.336;12.612;2023-09-30T02:19:10;5.82;;;2.03;;
60060;SDS011;45933;51.336;12.612;2023-09-30T02:21:36;5.32;;;2.10;;
60060;SDS011;45933;51.336;12.612;2023-09-30T02:24:01;9.35;;;2.40;;
60060;SDS011;45933;51.336;12.612;2023-09-30T02:26:27;7.07;;;2.28;;
60060;SDS011;45933;51.336;12.612;2023-09-30T02:28:54;5.35;;;1.90;;
60060;SDS011;45933;51.336;12.612;2023-09-30T02:31:19;6.70;;;2.20;;
60060;SDS011;45933;51.336;12.612;2023-09-30T02:33:44;4.97;;;1.92;;
60060;SDS011;45933;51.336;12.612;2023-09-30T02:36:10;5.95;;;2.28;;
60060;SDS011;45933;51.336;12.612;2023-09-30T02:38:35;4.13;;;1.50;;
60060;SDS011;45933;51.336;12.612;2023-09-30T02:41:03;5.65;;;2.05;;
60060;SDS011;45933;51.336;12.612;2023-09-30T02:43:29;7.40;;;2.30;;
60060;SDS011;45933;51.336;12.612;2023-09-30T02:45:54;6.97;;;1.90;;
60060;SDS011;45933;51.336;12.612;2023-09-30T02:48:20;5.22;;;2.00;;
60060;SDS011;45933;51.336;12.612;2023-09-30T02:50:45;5.13;;;2.40;;
60060;SDS011;45933;51.336;12.612;2023-09-30T02:53:11;7.15;;;2.50;;
60060;SDS011;45933;51.336;12.612;2023-09-30T02:55:38;8.25;;;2.40;;
60060;SDS011;45933;51.336;12.612;2023-09-30T02:58:03;7.40;;;2.35;;
60060;SDS011;45933;51.336;12.612;2023-09-30T03:00:29;6.47;;;2.75;;
60060;SDS011;45933;51.336;12.612;2023-09-30T03:02:58;7.22;;;2.63;;
60060;SDS011;45933;51.336;12.612;2023-09-30T03:05:29;7.75;;;2.40;;
60060;SDS011;45933;51.336;12.612;2023-09-30T03:07:58;8.75;;;2.60;;
60060;SDS011;45933;51.336;12.612;2023-09-30T03:10:24;5.90;;;2.30;;
60060;SDS011;45933;51.336;12.612;2023-09-30T03:12:52;5.15;;;2.08;;
60060;SDS011;45933;51.336;12.612;2023-09-30T03:15:17;9.52;;;2.85;;
60060;SDS011;45933;51.336;12.612;2023-09-30T03:17:43;7.32;;;2.30;;
60060;SDS011;45933;51.336;12.612;2023-09-30T03:20:09;9.55;;;3.20;;
60060;SDS011;45933;51.336;12.612;2023-09-30T03:22:39;6.18;;;2.33;;
60060;SDS011;45933;51.336;12.612;2023-09-30T03:25:06;10.15;;;2.78;;
60060;SDS011;45933;51.336;12.612;2023-09-30T03:27:33;7.78;;;2.28;;
60060;SDS011;45933;51.336;12.612;2023-09-30T03:29:58;11.98;;;2.63;;
60060;SDS011;45933;51.336;12.612;2023-09-30T03:32:26;5.95;;;2.58;;
60060;SDS011;45933;51.336;12.612;2023-09-30T03:34:52;10.63;;;2.90;;
60060;SDS011;45933;51.336;12.612;2023-09-30T03:37:17;8.32;;;2.58;;
60060;SDS011;45933;51.336;12.612;2023-09-30T03:39:42;6.80;;;2.70;;
60060;SDS011;45933;51.336;12.612;2023-09-30T03:42:08;7.88;;;2.45;;
60060;SDS011;45933;51.336;12.612;2023-09-30T03:44:36;7.40;;;2.65;;
60060;SDS011;45933;51.336;12.612;2023-09-30T03:47:03;7.22;;;2.72;;
60060;SDS011;45933;51.336;12.612;2023-09-30T03:49:28;7.07;;;2.97;;
60060;SDS011;45933;51.336;12.612;2023-09-30T03:51:54;11.57;;;2.70;;
60060;SDS011;45933;51.336;12.612;2023-09-30T03:54:19;9.00;;;2.88;;
60060;SDS011;45933;51.336;12.612;2023-09-30T03:56:45;7.43;;;2.55;;
60060;SDS011;45933;51.336;12.612;2023-09-30T03:59:11;7.63;;;2.50;;
60060;SDS011;45933;51.336;12.612;2023-09-30T04:01:37;9.55;;;3.60;;
60060;SDS011;45933;51.336;12.612;2023-09-30T04:04:05;5.90;;;2.90;;
60060;SDS011;45933;51.336;12.612;2023-09-30T04:06:36;8.25;;;2.97;;
60060;SDS011;45933;51.336;12.612;2023-09-30T04:09:03;9.10;;;3.45;;
60060;SDS011;45933;51.336;12.612;2023-09-30T04:11:34;8.70;;;3.42;;
60060;SDS011;45933;51.336;12.612;2023-09-30T04:14:01;9.43;;;3.30;;
60060;SDS011;45933;51.336;12.612;2023-09-30T04:16:26;8.25;;;2.72;;
60060;SDS011;45933;51.336;12.612;2023-09-30T04:18:55;10.38;;;3.58;;
60060;SDS011;45933;51.336;12.612;2023-09-30T04:21:20;10.27;;;3.30;;
60060;SDS011;45933;51.336;12.612;2023-09-30T04:23:46;10.85;;;2.92;;
60060;SDS011;45933;51.336;12.612;2023-09-30T04:26:11;9.10;;;2.90;;
60060;SDS011;45933;51.336;12.612;2023-09-30T04:28:37;8.35;;;3.65;;
60060;SDS011;45933;51.336;12.612;2023-09-30T04:31:02;10.15;;;3.83;;
60060;SDS011;45933;51.336;12.612;2023-09-30T04:33:28;7.82;;;3.70;;
60060;SDS011;45933;51.336;12.612;2023-09-30T04:35:53;12.00;;;3.22;;
60060;SDS011;45933;51.336;12.612;2023-09-30T04:38:19;13.02;;;4.32;;
60060;SDS011;45933;51.336;12.612;2023-09-30T04:40:44;9.98;;;3.38;;
60060;SDS011;45933;51.336;12.612;2023-09-30T04:43:13;11.40;;;4.13;;
60060;SDS011;45933;51.336;12.612;2023-09-30T04:45:39;9.25;;;3.30;;
60060;SDS011;45933;51.336;12.612;2023-09-30T04:48:05;10.60;;;3.60;;
60060;SDS011;45933;51.336;12.612;2023-09-30T04:50:30;12.90;;;3.90;;
60060;SDS011;45933;51.336;12.612;2023-09-30T04:52:56;11.20;;;4.00;;
60060;SDS011;45933;51.336;12.612;2023-09-30T04:55:22;10.05;;;3.30;;
60060;SDS011;45933;51.336;12.612;2023-09-30T04:57:48;8.23;;;3.42;;
60060;SDS011;45933;51.336;12.612;2023-09-30T05:00:14;13.43;;;3.83;;
60060;SDS011;45933;51.336;12.612;2023-09-30T05:02:41;9.95;;;3.58;;
60060;SDS011;45933;51.336;12.612;2023-09-30T05:05:07;8.80;;;3.65;;
60060;SDS011;45933;51.336;12.612;2023-09-30T05:07:33;9.55;;;3.22;;
60060;SDS011;45933;51.336;12.612;2023-09-30T05:09:59;8.75;;;3.13;;
60060;SDS011;45933;51.336;12.612;2023-09-30T05:12:24;11.13;;;3.20;;
60060;SDS011;45933;51.336;12.612;2023-09-30T05:14:50;8.95;;;4.15;;
60060;SDS011;45933;51.336;12.612;2023-09-30T05:17:16;9.23;;;3.88;;
60060;SDS011;45933;51.336;12.612;2023-09-30T05:19:41;10.68;;;3.22;;
60060;SDS011;45933;51.336;12.612;2023-09-30T05:22:06;10.60;;;3.28;;
60060;SDS011;45933;51.336;12.612;2023-09-30T05:24:31;8.68;;;3.70;;
60060;SDS011;45933;51.336;12.612;2023-09-30T05:26:57;13.20;;;3.80;;
60060;SDS011;45933;51.336;12.612;2023-09-30T05:29:22;9.25;;;3.78;;
60060;SDS011;45933;51.336;12.612;2023-09-30T05:31:48;9.05;;;3.55;;
60060;SDS011;45933;51.336;12.612;2023-09-30T05:34:13;7.60;;;3.42;;
60060;SDS011;45933;51.336;12.612;2023-09-30T05:36:39;9.60;;;3.30;;
60060;SDS011;45933;51.336;12.612;2023-09-30T05:39:04;9.52;;;3.45;;
60060;SDS011;45933;51.336;12.612;2023-09-30T05:41:33;9.07;;;3.13;;
60060;SDS011;45933;51.336;12.612;2023-09-30T05:43:58;7.93;;;3.35;;
60060;SDS011;45933;51.336;12.612;2023-09-30T05:46:24;12.43;;;3.97;;
60060;SDS011;45933;51.336;12.612;2023-09-30T05:48:50;12.02;;;3.67;;
60060;SDS011;45933;51.336;12.612;2023-09-30T05:51:15;11.07;;;4.00;;
60060;SDS011;45933;51.336;12.612;2023-09-30T05:53:41;8.95;;;3.25;;
60060;SDS011;45933;51.336;12.612;2023-09-30T05:56:07;10.50;;;3.47;;
60060;SDS011;45933;51.336;12.612;2023-09-30T05:58:36;14.85;;;4.22;;
60060;SDS011;45933;51.336;12.612;2023-09-30T06:01:05;10.80;;;4.10;;
60060;SDS011;45933;51.336;12.612;2023-09-30T06:03:35;8.88;;;2.90;;
60060;SDS011;45933;51.336;12.612;2023-09-30T06:06:09;8.30;;;3.08;;
60060;SDS011;45933;51.336;12.612;2023-09-30T06:08:36;10.38;;;3.42;;
60060;SDS011;45933;51.336;12.612;2023-09-30T06:11:02;10.38;;;3.17;;
60060;SDS011;45933;51.336;12.612;2023-09-30T06:13:27;7.32;;;3.10;;
60060;SDS011;45933;51.336;12.612;2023-09-30T06:15:56;9.68;;;3.17;;
60060;SDS011;45933;51.336;12.612;2023-09-30T06:18:23;8.93;;;3.40;;
60060;SDS011;45933;51.336;12.612;2023-09-30T06:20:48;12.57;;;3.88;;
60060;SDS011;45933;51.336;12.612;2023-09-30T06:23:14;10.25;;;3.30;;
60060;SDS011;45933;51.336;12.612;2023-09-30T06:25:39;8.68;;;3.25;;
60060;SDS011;45933;51.336;12.612;2023-09-30T06:28:05;10.27;;;3.13;;
60060;SDS011;45933;51.336;12.612;2023-09-30T06:30:32;7.82;;;3.45;;
60060;SDS011;45933;51.336;12.612;2023-09-30T06:32:59;9.88;;;3.60;;
60060;SDS011;45933;51.336;12.612;2023-09-30T06:35:25;16.50;;;3.97;;
60060;SDS011;45933;51.336;12.612;2023-09-30T06:37:51;17.42;;;3.72;;
60060;SDS011;45933;51.336;12.612;2023-09-30T06:40:17;12.50;;;4.03;;
60060;SDS011;45933;51.336;12.612;2023-09-30T06:42:43;12.32;;;4.07;;
60060;SDS011;45933;51.336;12.612;2023-09-30T06:45:09;11.43;;;3.78;;
60060;SDS011;45933;51.336;12.612;2023-09-30T06:47:35;12.13;;;4.35;;
60060;SDS011;45933;51.336;12.612;2023-09-30T06:50:07;12.18;;;3.63;;
60060;SDS011;45933;51.336;12.612;2023-09-30T06:52:34;11.57;;;3.38;;
60060;SDS011;45933;51.336;12.612;2023-09-30T06:55:04;12.93;;;4.00;;
60060;SDS011;45933;51.336;12.612;2023-09-30T06:57:31;12.32;;;3.58;;
60060;SDS011;45933;51.336;12.612;2023-09-30T06:59:57;10.40;;;3.75;;
60060;SDS011;45933;51.336;12.612;2023-09-30T07:02:22;9.35;;;3.15;;
60060;SDS011;45933;51.336;12.612;2023-09-30T07:04:49;10.20;;;3.40;;
60060;SDS011;45933;51.336;12.612;2023-09-30T07:07:14;12.73;;;3.45;;
60060;SDS011;45933;51.336;12.612;2023-09-30T07:09:40;9.18;;;3.53;;
60060;SDS011;45933;51.336;12.612;2023-09-30T07:12:05;9.95;;;2.92;;
60060;SDS011;45933;51.336;12.612;2023-09-30T07:14:31;10.80;;;3.67;;
60060;SDS011;45933;51.336;12.612;2023-09-30T07:16:56;9.27;;;3.50;;
60060;SDS011;45933;51.336;12.612;2023-09-30T07:19:22;10.73;;;3.47;;
60060;SDS011;45933;51.336;12.612;2023-09-30T07:21:48;11.38;;;3.47;;
60060;SDS011;45933;51.336;12.612;2023-09-30T07:24:13;9.32;;;3.05;;
60060;SDS011;45933;51.336;12.612;2023-09-30T07:26:39;10.68;;;3.30;;
60060;SDS011;45933;51.336;12.612;2023-09-30T07:29:05;9.00;;;3.35;;
60060;SDS011;45933;51.336;12.612;2023-09-30T07:31:33;12.27;;;3.65;;
60060;SDS011;45933;51.336;12.612;2023-09-30T07:34:00;12.80;;;4.47;;
60060;SDS011;45933;51.336;12.612;2023-09-30T07:36:25;11.40;;;3.42;;
60060;SDS011;45933;51.336;12.612;2023-09-30T07:38:50;11.30;;;3.33;;
60060;SDS011;45933;51.336;12.612;2023-09-30T07:41:16;9.52;;;3.28;;
60060;SDS011;45933;51.336;12.612;2023-09-30T07:43:42;8.93;;;3.10;;
60060;SDS011;45933;51.336;12.612;2023-09-30T07:46:08;13.23;;;3.88;;
60060;SDS011;45933;51.336;12.612;2023-09-30T07:48:33;9.80;;;2.88;;
60060;SDS011;45933;51.336;12.612;2023-09-30T07:51:00;11.20;;;3.00;;
60060;SDS011;45933;51.336;12.612;2023-09-30T07:53:25;10.80;;;3.10;;
60060;SDS011;45933;51.336;12.612;2023-09-30T07:55:51;8.75;;;3.10;;
60060;SDS011;45933;51.336;12.612;2023-09-30T07:58:17;13.38;;;2.85;;
60060;SDS011;45933;51.336;12.612;2023-09-30T08:00:42;11.57;;;3.20;;
60060;SDS011;45933;51.336;12.612;2023-09-30T08:03:08;10.68;;;2.47;;
60060;SDS011;45933;51.336;12.612;2023-09-30T08:05:33;8.38;;;2.85;;
60060;SDS011;45933;51.336;12.612;2023-09-30T08:07:58;8.30;;;3.55;;
60060;SDS011;45933;51.336;12.612;2023-09-30T08:10:24;9.15;;;3.30;;
60060;SDS011;45933;51.336;12.612;2023-09-30T08:12:49;10.43;;;2.90;;
60060;SDS011;45933;51.336;12.612;2023-09-30T08:15:15;9.52;;;2.95;;
60060;SDS011;45933;51.336;12.612;2023-09-30T08:17:40;8.75;;;2.70;;
60060;SDS011;45933;51.336;12.612;2023-09-30T08:20:06;8.68;;;3.53;;
60060;SDS011;45933;51.336;12.612;2023-09-30T08:22:33;11.20;;;3.45;;
60060;SDS011;45933;51.336;12.612;2023-09-30T08:24:59;9.35;;;3.80;;
60060;SDS011;45933;51.336;12.612;2023-09-30T08:27:25;8.93;;;2.85;;
60060;SDS011;45933;51.336;12.612;2023-09-30T08:29:50;8.13;;;3.08;;
60060;SDS011;45933;51.336;12.612;2023-09-30T08:32:15;11.25;;;2.67;;
60060;SDS011;45933;51.336;12.612;2023-09-30T08:34:41;6.13;;;3.00;;
60060;SDS011;45933;51.336;12.612;2023-09-30T08:37:07;6.97;;;2.25;;
60060;SDS011;45933;51.336;12.612;2023-09-30T08:39:32;13.52;;;3.63;;
60060;SDS011;45933;51.336;12.612;2023-09-30T08:41:57;8.45;;;2.88;;
60060;SDS011;45933;51.336;12.612;2023-09-30T08:44:23;11.30;;;3.75;;
60060;SDS011;45933;51.336;12.612;2023-09-30T08:46:49;10.07;;;3.10;;
60060;SDS011;45933;51.336;12.612;2023-09-30T08:49:16;13.38;;;3.95;;
60060;SDS011;45933;51.336;12.612;2023-09-30T08:51:43;8.75;;;3.03;;
60060;SDS011;45933;51.336;12.612;2023-09-30T08:54:08;8.35;;;3.30;;
60060;SDS011;45933;51.336;12.612;2023-09-30T08:56:33;7.85;;;2.90;;
60060;SDS011;45933;51.336;12.612;2023-09-30T08:59:01;7.95;;;2.65;;
60060;SDS011;45933;51.336;12.612;2023-09-30T09:01:28;9.02;;;2.78;;
60060;SDS011;45933;51.336;12.612;2023-09-30T09:03:55;7.90;;;2.80;;
60060;SDS011;45933;51.336;12.612;2023-09-30T09:06:21;7.95;;;2.90;;
60060;SDS011;45933;51.336;12.612;2023-09-30T09:08:47;8.88;;;3.17;;
60060;SDS011;45933;51.336;12.612;2023-09-30T09:11:13;8.68;;;2.72;;
60060;SDS011;45933;51.336;12.612;2023-09-30T09:13:50;11.65;;;2.90;;
60060;SDS011;45933;51.336;12.612;2023-09-30T09:16:20;9.15;;;2.97;;
60060;SDS011;45933;51.336;12.612;2023-09-30T09:18:46;7.80;;;2.50;;
60060;SDS011;45933;51.336;12.612;2023-09-30T09:21:13;8.50;;;2.55;;
60060;SDS011;45933;51.336;12.612;2023-09-30T09:26:09;8.93;;;2.40;;
60060;SDS011;45933;51.336;12.612;2023-09-30T09:29:02;7.53;;;2.75;;
60060;SDS011;45933;51.336;12.612;2023-09-30T09:31:32;5.97;;;2.45;;
60060;SDS011;45933;51.336;12.612;2023-09-30T09:34:04;7.07;;;2.95;;
60060;SDS011;45933;51.336;12.612;2023-09-30T09:36:40;10.40;;;2.92;;
60060;SDS011;45933;51.336;12.612;2023-09-30T09:39:20;6.68;;;2.25;;
60060;SDS011;45933;51.336;12.612;2023-09-30T09:41:57;6.38;;;2.75;;
60060;SDS011;45933;51.336;12.612;2023-09-30T09:44:23;5.53;;;2.22;;
60060;SDS011;45933;51.336;12.612;2023-09-30T09:46:52;6.35;;;2.08;;
60060;SDS011;45933;51.336;12.612;2023-09-30T09:49:18;7.63;;;2.45;;
60060;SDS011;45933;51.336;12.612;2023-09-30T09:51:46;8.27;;;2.65;;
60060;SDS011;45933;51.336;12.612;2023-09-30T09:54:13;7.50;;;2.35;;
60060;SDS011;45933;51.336;12.612;2023-09-30T09:56:39;6.28;;;2.28;;
60060;SDS011;45933;51.336;12.612;2023-09-30T09:59:06;6.63;;;2.75;;
60060;SDS011;45933;51.336;12.612;2023-09-30T10:01:33;9.25;;;2.88;;
60060;SDS011;45933;51.336;12.612;2023-09-30T10:04:04;9.63;;;3.05;;
60060;SDS011;45933;51.336;12.612;2023-09-30T10:06:30;10.82;;;3.20;;
60060;SDS011;45933;51.336;12.612;2023-09-30T10:08:55;9.43;;;2.90;;
60060;SDS011;45933;51.336;12.612;2023-09-30T10:11:22;8.43;;;2.50;;
60060;SDS011;45933;51.336;12.612;2023-09-30T10:13:52;6.57;;;2.90;;
60060;SDS011;45933;51.336;12.612;2023-09-30T10:19:11;5.25;;;2.40;;
60060;SDS011;45933;51.336;12.612;2023-09-30T10:21:38;8.57;;;2.45;;
60060;SDS011;45933;51.336;12.612;2023-09-30T10:27:27;5.25;;;2.70;;
60060;SDS011;45933;51.336;12.612;2023-09-30T10:29:54;7.13;;;2.25;;
60060;SDS011;45933;51.336;12.612;2023-09-30T10:37:52;6.05;;;2.38;;
60060;SDS011;45933;51.336;12.612;2023-09-30T10:40:47;6.82;;;2.33;;
60060;SDS011;45933;51.336;12.612;2023-09-30T10:43:28;6.35;;;2.30;;
60060;SDS011;45933;51.336;12.612;2023-09-30T10:46:02;5.38;;;1.92;;
60060;SDS011;45933;51.336;12.612;2023-09-30T10:53:26;3.95;;;1.90;;
60060;SDS011;45933;51.336;12.612;2023-09-30T10:55:59;7.00;;;2.35;;
60060;SDS011;45933;51.336;12.612;2023-09-30T11:01:20;4.50;;;1.75;;
60060;SDS011;45933;51.336;12.612;2023-09-30T11:03:47;5.68;;;2.00;;
60060;SDS011;45933;51.336;12.612;2023-09-30T11:06:16;5.78;;;2.67;;
60060;SDS011;45933;51.336;12.612;2023-09-30T11:08:45;6.13;;;2.03;;
60060;SDS011;45933;51.336;12.612;2023-09-30T11:11:15;9.80;;;2.58;;
60060;SDS011;45933;51.336;12.612;2023-09-30T11:13:41;5.72;;;1.90;;
60060;SDS011;45933;51.336;12.612;2023-09-30T11:16:06;7.28;;;2.25;;
60060;SDS011;45933;51.336;12.612;2023-09-30T11:18:34;4.00;;;2.33;;
60060;SDS011;45933;51.336;12.612;2023-09-30T11:21:06;7.55;;;2.10;;
60060;SDS011;45933;51.336;12.612;2023-09-30T11:23:36;7.15;;;2.60;;
60060;SDS011;45933;51.336;12.612;2023-09-30T11:26:03;5.65;;;2.28;;
60060;SDS011;45933;51.336;12.612;2023-09-30T11:28:40;6.25;;;2.20;;
60060;SDS011;45933;51.336;12.612;2023-09-30T11:31:07;6.38;;;2.03;;
60060;SDS011;45933;51.336;12.612;2023-09-30T11:33:51;5.90;;;2.13;;
60060;SDS011;45933;51.336;12.612;2023-09-30T11:36:18;6.38;;;2.47;;
60060;SDS011;45933;51.336;12.612;2023-09-30T11:38:45;6.68;;;2.05;;
60060;SDS011;45933;51.336;12.612;2023-09-30T11:41:12;5.22;;;2.47;;
60060;SDS011;45933;51.336;12.612;2023-09-30T11:43:38;7.47;;;2.65;;
60060;SDS011;45933;51.336;12.612;2023-09-30T11:46:24;4.68;;;2.40;;
60060;SDS011;45933;51.336;12.612;2023-09-30T11:48:56;4.95;;;2.20;;
60060;SDS011;45933;51.336;12.612;2023-09-30T11:51:24;5.68;;;2.65;;
60060;SDS011;45933;51.336;12.612;2023-09-30T11:53:51;5.35;;;1.95;;
60060;SDS011;45933;51.336;12.612;2023-09-30T11:56:18;6.03;;;2.17;;
60060;SDS011;45933;51.336;12.612;2023-09-30T11:58:43;5.47;;;3.03;;
60060;SDS011;45933;51.336;12.612;2023-09-30T12:01:09;6.82;;;2.50;;
60060;SDS011;45933;51.336;12.612;2023-09-30T12:03:38;5.63;;;2.28;;
60060;SDS011;45933;51.336;12.612;2023-09-30T12:06:05;9.98;;;2.10;;
60060;SDS011;45933;51.336;12.612;2023-09-30T12:08:31;3.22;;;1.77;;
60060;SDS011;45933;51.336;12.612;2023-09-30T12:10:57;6.13;;;2.42;;
60060;SDS011;45933;51.336;12.612;2023-09-30T12:13:24;4.53;;;2.25;;
60060;SDS011;45933;51.336;12.612;2023-09-30T12:15:50;4.32;;;2.28;;
60060;SDS011;45933;51.336;12.612;2023-09-30T12:18:17;8.38;;;2.50;;
60060;SDS011;45933;51.336;12.612;2023-09-30T12:20:48;5.40;;;2.10;;
60060;SDS011;45933;51.336;12.612;2023-09-30T12:23:14;4.97;;;2.30;;
60060;SDS011;45933;51.336;12.612;2023-09-30T12:25:39;5.80;;;2.20;;
60060;SDS011;45933;51.336;12.612;2023-09-30T12:28:04;3.53;;;2.10;;
60060;SDS011;45933;51.336;12.612;2023-09-30T12:30:30;7.50;;;2.03;;
60060;SDS011;45933;51.336;12.612;2023-09-30T12:32:57;4.95;;;2.50;;
60060;SDS011;45933;51.336;12.612;2023-09-30T12:35:22;3.65;;;2.05;;
60060;SDS011;45933;51.336;12.612;2023-09-30T12:37:47;5.55;;;2.60;;
60060;SDS011;45933;51.336;12.612;2023-09-30T12:40:13;10.70;;;2.33;;
60060;SDS011;45933;51.336;12.612;2023-09-30T12:42:41;5.57;;;2.47;;
60060;SDS011;45933;51.336;12.612;2023-09-30T12:45:10;6.43;;;2.50;;
60060;SDS011;45933;51.336;12.612;2023-09-30T12:47:36;6.32;;;2.13;;
60060;SDS011;45933;51.336;12.612;2023-09-30T12:50:01;7.10;;;2.20;;
60060;SDS011;45933;51.336;12.612;2023-09-30T12:52:28;6.88;;;2.42;;
60060;SDS011;45933;51.336;12.612;2023-09-30T12:54:55;7.15;;;2.40;;
60060;SDS011;45933;51.336;12.612;2023-09-30T12:57:20;5.10;;;2.20;;
60060;SDS011;45933;51.336;12.612;2023-09-30T12:59:46;4.85;;;2.30;;
60060;SDS011;45933;51.336;12.612;2023-09-30T13:02:12;6.03;;;2.40;;
60060;SDS011;45933;51.336;12.612;2023-09-30T13:04:38;6.20;;;2.40;;
60060;SDS011;45933;51.336;12.612;2023-09-30T13:07:09;4.95;;;2.38;;
60060;SDS011;45933;51.336;12.612;2023-09-30T13:09:35;6.80;;;2.03;;
60060;SDS011;45933;51.336;12.612;2023-09-30T13:12:01;5.00;;;2.13;;
60060;SDS011;45933;51.336;12.612;2023-09-30T13:14:27;4.97;;;2.03;;
60060;SDS011;45933;51.336;12.612;2023-09-30T13:16:53;5.25;;;2.22;;
60060;SDS011;45933;51.336;12.612;2023-09-30T13:19:19;6.07;;;2.30;;
60060;SDS011;45933;51.336;12.612;2023-09-30T13:21:46;5.60;;;2.50;;
60060;SDS011;45933;51.336;12.612;2023-09-30T13:24:21;5.13;;;2.22;;
60060;SDS011;45933;51.336;12.612;2023-09-30T13:26:47;4.78;;;2.13;;
60060;SDS011;45933;51.336;12.612;2023-09-30T13:29:14;5.88;;;2.53;;
60060;SDS011;45933;51.336;12.612;2023-09-30T13:31:41;5.90;;;2.22;;
60060;SDS011;45933;51.336;12.612;2023-09-30T13:34:07;4.88;;;2.15;;
60060;SDS011;45933;51.336;12.612;2023-09-30T13:36:33;7.18;;;2.58;;
60060;SDS011;45933;51.336;12.612;2023-09-30T13:38:58;5.85;;;2.38;;
60060;SDS011;45933;51.336;12.612;2023-09-30T13:41:23;7.85;;;2.40;;
60060;SDS011;45933;51.336;12.612;2023-09-30T13:43:49;5.05;;;2.15;;
60060;SDS011;45933;51.336;12.612;2023-09-30T13:46:14;4.60;;;1.90;;
60060;SDS011;45933;51.336;12.612;2023-09-30T13:48:40;6.10;;;2.05;;
60060;SDS011;45933;51.336;12.612;2023-09-30T13:51:06;4.32;;;2.10;;
60060;SDS011;45933;51.336;12.612;2023-09-30T13:53:33;5.90;;;2.03;;
60060;SDS011;45933;51.336;12.612;2023-09-30T13:55:58;17.52;;;2.60;;
60060;SDS011;45933;51.336;12.612;2023-09-30T13:58:23;4.65;;;1.80;;
60060;SDS011;45933;51.336;12.612;2023-09-30T14:00:49;4.10;;;1.83;;
60060;SDS011;45933;51.336;12.612;2023-09-30T14:03:17;12.65;;;4.10;;
60060;SDS011;45933;51.336;12.612;2023-09-30T14:05:45;5.15;;;2.25;;
60060;SDS011;45933;51.336;12.612;2023-09-30T14:08:11;5.38;;;2.38;;
60060;SDS011;45933;51.336;12.612;2023-09-30T14:10:37;4.63;;;1.88;;
60060;SDS011;45933;51.336;12.612;2023-09-30T14:13:03;6.80;;;1.90;;
60060;SDS011;45933;51.336;12.612;2023-09-30T14:15:28;9.13;;;2.63;;
60060;SDS011;45933;51.336;12.612;2023-09-30T14:17:56;5.68;;;1.70;;
60060;SDS011;45933;51.336;12.612;2023-09-30T14:20:24;5.40;;;1.80;;
60060;SDS011;45933;51.336;12.612;2023-09-30T14:22:50;4.10;;;1.80;;
60060;SDS011;45933;51.336;12.612;2023-09-30T14:25:20;4.70;;;2.13;;
60060;SDS011;45933;51.336;12.612;2023-09-30T14:27:46;3.85;;;1.80;;
60060;SDS011;45933;51.336;12.612;2023-09-30T14:30:12;11.77;;;6.85;;
60060;SDS011;45933;51.336;12.612;2023-09-30T14:32:38;12.07;;;3.42;;
60060;SDS011;45933;51.336;12.612;2023-09-30T14:35:03;12.40;;;1.85;;
60060;SDS011;45933;51.336;12.612;2023-09-30T14:37:30;3.63;;;1.58;;
60060;SDS011;45933;51.336;12.612;2023-09-30T14:39:56;6.57;;;1.92;;
60060;SDS011;45933;51.336;12.612;2023-09-30T14:42:21;4.18;;;1.95;;
60060;SDS011;45933;51.336;12.612;2023-09-30T14:44:46;4.75;;;1.65;;
60060;SDS011;45933;51.336;12.612;2023-09-30T14:47:12;5.13;;;2.00;;
60060;SDS011;45933;51.336;12.612;2023-09-30T14:49:37;5.25;;;2.00;;